createdAt,value
2017-10-17T00:02:06.406Z,26.30
2017-10-17T00:04:37.398Z,29.73
2017-10-17T00:07:07.224Z,25.10
2017-10-17T00:09:37.250Z,28.40
2017-10-17T00:12:07.093Z,22.77
2017-10-17T00:14:37.193Z,22.30
2017-10-17T00:17:07.046Z,23.90
2017-10-17T00:19:36.962Z,22.50
2017-10-17T00:22:06.758Z,27.57
2017-10-17T00:24:36.569Z,23.67
2017-10-17T00:27:06.747Z,23.13
2017-10-17T00:29:36.561Z,27.03
2017-10-17T00:32:06.651Z,24.33
2017-10-17T00:34:36.483Z,25.10
2017-10-17T00:37:06.658Z,27.10
2017-10-17T00:39:36.481Z,26.50
2017-10-17T00:42:06.332Z,20.33
2017-10-17T00:44:36.173Z,21.53
2017-10-17T00:47:05.966Z,21.97
2017-10-17T00:49:35.858Z,20.80
2017-10-17T00:52:05.655Z,20.70
2017-10-17T00:54:35.847Z,21.00
2017-10-17T00:57:05.730Z,27.50
2017-10-17T00:59:36.401Z,22.10
2017-10-17T01:02:06.230Z,21.20
2017-10-17T01:04:36.342Z,20.23
2017-10-17T01:07:06.210Z,19.17
2017-10-17T01:09:36.298Z,21.03
2017-10-17T01:12:06.165Z,19.40
2017-10-17T01:21:25.253Z,19.83
2017-10-17T01:24:08.915Z,20.03
2017-10-17T01:26:38.762Z,25.50
2017-10-17T01:29:18.476Z,18.93
2017-10-17T01:31:48.770Z,19.67
2017-10-17T01:34:21.211Z,19.70
2017-10-17T01:36:51.090Z,19.20
2017-10-17T01:39:20.929Z,20.90
2017-10-17T01:41:50.770Z,20.50
2017-10-17T01:44:32.471Z,22.50
2017-10-17T01:47:02.277Z,25.53
2017-10-17T01:49:32.300Z,20.80
2017-10-17T01:52:17.970Z,20.47
2017-10-17T01:55:04.438Z,20.70
2017-10-17T01:57:37.005Z,19.87
2017-10-17T02:00:07.206Z,20.17
2017-10-17T02:02:38.844Z,19.50
2017-10-17T02:05:08.989Z,21.43
2017-10-17T02:07:38.826Z,23.10
2017-10-17T02:10:11.358Z,25.60
2017-10-17T02:12:41.189Z,24.63
2017-10-17T02:15:11.346Z,20.77
2017-10-17T02:17:41.698Z,27.30
2017-10-17T02:20:11.870Z,20.43
2017-10-17T02:22:41.704Z,19.67
2017-10-17T02:25:26.401Z,23.30
2017-10-17T02:27:56.231Z,20.50
2017-10-17T02:30:26.893Z,24.17
2017-10-17T02:32:56.716Z,17.60
2017-10-17T02:35:26.584Z,27.93
2017-10-17T02:37:56.750Z,22.67
2017-10-17T02:40:26.893Z,17.47
2017-10-17T02:42:57.012Z,18.50
2017-10-17T02:45:26.861Z,17.73
2017-10-17T02:47:56.660Z,21.70
2017-10-17T02:50:26.759Z,20.00
2017-10-17T02:52:56.585Z,17.70
2017-10-17T02:55:26.393Z,18.47
2017-10-17T02:57:56.483Z,21.00
2017-10-17T03:00:26.293Z,23.70
2017-10-17T03:02:57.288Z,19.03
2017-10-17T03:05:27.109Z,17.60
2017-10-17T03:07:57.230Z,21.10
2017-10-17T03:10:27.063Z,18.33
2017-10-17T03:12:56.893Z,18.90
2017-10-17T03:15:27.097Z,22.97
2017-10-17T03:17:59.770Z,19.90
2017-10-17T03:20:31.011Z,19.80
2017-10-17T03:23:16.496Z,20.53
2017-10-17T03:25:46.375Z,22.70
2017-10-17T03:28:18.875Z,20.10
2017-10-17T03:30:49.641Z,23.37
2017-10-17T03:33:19.814Z,19.03
2017-10-17T03:35:49.437Z,22.90
2017-10-17T03:38:33.965Z,27.17
2017-10-17T03:41:03.869Z,20.60
2017-10-17T03:46:23.457Z,20.47
2017-10-17T03:48:53.099Z,23.07
2017-10-17T03:51:22.714Z,21.60
2017-10-17T03:53:52.344Z,20.73
2017-10-17T03:56:24.656Z,21.43
2017-10-17T03:58:54.338Z,19.20
2017-10-17T04:01:35.674Z,19.23
2017-10-17T04:04:06.226Z,24.20
2017-10-17T04:06:52.678Z,20.53
2017-10-17T04:09:22.330Z,22.47
2017-10-17T04:11:51.953Z,23.40
2017-10-17T04:14:41.533Z,21.27
2017-10-17T04:17:17.018Z,25.10
2017-10-17T04:20:06.646Z,20.03
2017-10-17T04:22:42.003Z,21.13
2017-10-17T04:25:12.527Z,23.83
2017-10-17T04:27:57.025Z,21.90
2017-10-17T04:30:27.237Z,20.23
2017-10-17T04:33:11.730Z,21.10
2017-10-17T04:35:44.082Z,25.50
2017-10-17T04:38:13.703Z,26.80
2017-10-17T04:40:53.479Z,20.43
2017-10-17T04:43:29.002Z,18.80
2017-10-17T04:45:59.779Z,22.60
2017-10-17T04:48:49.221Z,21.33
2017-10-17T04:51:22.499Z,21.90
2017-10-17T04:53:55.650Z,23.53
2017-10-17T04:56:25.545Z,22.43
2017-10-17T04:59:11.765Z,21.90
2017-10-17T05:01:45.451Z,19.53
2017-10-17T05:04:20.979Z,22.13
2017-10-17T05:06:50.886Z,24.30
2017-10-17T05:09:27.098Z,18.80
2017-10-17T05:11:57.086Z,27.73
2017-10-17T05:14:31.349Z,22.47
2017-10-17T05:17:15.897Z,25.83
2017-10-17T05:20:00.370Z,26.90
2017-10-17T05:22:46.609Z,22.30
2017-10-17T05:25:16.248Z,17.80
2017-10-17T05:27:52.150Z,19.40
2017-10-17T05:30:22.685Z,21.57
2017-10-17T05:32:52.307Z,22.83
2017-10-17T05:35:21.912Z,19.20
2017-10-17T05:37:51.561Z,24.43
2017-10-17T05:40:21.203Z,28.60
2017-10-17T05:42:50.854Z,22.03
2017-10-17T05:45:20.468Z,22.07
2017-10-17T05:47:50.973Z,20.17
2017-10-17T05:50:25.237Z,20.97
2017-10-17T05:52:55.118Z,20.10
2017-10-17T05:55:24.752Z,26.10
2017-10-17T05:57:54.381Z,25.30
2017-10-17T06:00:24.038Z,22.60
2017-10-17T06:02:53.693Z,22.73
2017-10-17T06:05:23.630Z,19.30
2017-10-17T06:07:53.253Z,22.33
2017-10-17T06:10:22.890Z,27.23
2017-10-17T06:12:52.514Z,21.83
2017-10-17T06:15:22.129Z,20.67
2017-10-17T06:17:52.308Z,24.37
2017-10-17T06:20:22.189Z,20.57
2017-10-17T06:22:52.013Z,25.63
2017-10-17T06:25:21.846Z,25.80
2017-10-17T06:27:51.661Z,28.23
2017-10-17T06:30:22.221Z,24.27
2017-10-17T06:32:52.063Z,27.30
2017-10-17T06:35:22.220Z,20.47
2017-10-17T06:37:52.693Z,23.80
2017-10-17T06:40:22.620Z,28.03
2017-10-17T06:42:52.437Z,22.67
2017-10-17T06:45:22.626Z,28.20
2017-10-17T06:47:52.461Z,28.80
2017-10-17T06:50:22.645Z,28.03
2017-10-17T06:52:52.625Z,26.50
2017-10-17T06:55:22.485Z,34.70
2017-10-17T06:57:52.330Z,31.73
2017-10-17T07:00:22.205Z,28.97
2017-10-17T07:02:52.045Z,27.93
2017-10-17T07:05:22.298Z,23.83
2017-10-17T07:07:52.141Z,34.40
2017-10-17T07:10:22.365Z,28.40
2017-10-17T07:12:52.199Z,25.53
2017-10-17T07:15:22.385Z,26.43
2017-10-17T07:17:52.210Z,27.20
2017-10-17T07:20:22.429Z,29.60
2017-10-17T07:22:52.247Z,27.73
2017-10-17T07:25:22.432Z,22.87
2017-10-17T07:27:52.245Z,23.13
2017-10-17T07:30:22.580Z,26.37
2017-10-17T07:32:52.399Z,23.70
2017-10-17T07:35:22.309Z,25.13
2017-10-17T07:37:52.109Z,19.40
2017-10-17T07:40:22.291Z,18.57
2017-10-17T07:42:52.860Z,30.00
2017-10-17T07:45:23.374Z,20.00
2017-10-17T07:47:53.921Z,23.00
2017-10-17T07:50:24.110Z,25.03
2017-10-17T07:52:53.947Z,21.47
2017-10-17T07:55:23.826Z,21.37
2017-10-17T07:57:53.976Z,30.30
2017-10-17T08:00:23.759Z,30.20
2017-10-17T08:02:53.728Z,21.87
2017-10-17T08:05:23.555Z,18.63
2017-10-17T08:07:53.418Z,25.23
2017-10-17T08:10:23.302Z,25.20
2017-10-17T08:12:53.157Z,20.93
2017-10-17T08:15:23.003Z,19.67
2017-10-17T08:17:52.837Z,20.10
2017-10-17T08:20:23.113Z,21.83
2017-10-17T08:22:52.984Z,14.53
2017-10-17T08:25:22.790Z,21.30
2017-10-17T08:27:53.420Z,15.27
2017-10-17T08:30:23.237Z,14.97
2017-10-17T08:32:53.120Z,15.97
2017-10-17T08:35:22.946Z,17.30
2017-10-17T08:37:52.786Z,18.03
2017-10-17T08:40:22.645Z,12.40
2017-10-17T08:42:52.454Z,14.87
2017-10-17T08:45:22.278Z,13.10
2017-10-17T08:47:52.152Z,13.20
2017-10-17T08:50:21.996Z,11.80
2017-10-17T08:52:51.838Z,13.87
2017-10-17T08:55:21.680Z,13.27
2017-10-17T08:57:51.540Z,16.23
2017-10-17T09:00:21.372Z,14.00
2017-10-17T09:02:51.484Z,12.50
2017-10-17T09:05:21.408Z,17.20
2017-10-17T09:07:51.481Z,11.93
2017-10-17T09:10:21.351Z,14.63
2017-10-17T09:12:59.242Z,10.93
2017-10-17T09:15:29.043Z,13.20
2017-10-17T09:17:59.240Z,19.10
2017-10-17T09:20:29.042Z,12.00
2017-10-17T09:22:58.882Z,11.33
2017-10-17T09:25:29.045Z,11.90
2017-10-17T09:27:58.906Z,15.50
2017-10-17T09:30:28.764Z,11.80
2017-10-17T09:32:58.621Z,12.17
2017-10-17T09:35:28.434Z,11.27
2017-10-17T09:37:58.541Z,13.53
2017-10-17T09:40:28.346Z,16.70
2017-10-17T09:42:58.515Z,11.80
2017-10-17T09:45:28.404Z,13.70
2017-10-17T09:47:58.528Z,12.70
2017-10-17T09:50:28.331Z,11.97
2017-10-17T09:52:58.490Z,11.10
2017-10-17T09:55:29.465Z,10.70
2017-10-17T09:57:59.307Z,13.40
2017-10-17T10:00:29.142Z,20.23
2017-10-17T10:02:59.275Z,13.50
2017-10-17T10:05:29.086Z,14.47
2017-10-17T10:07:59.201Z,13.40
2017-10-17T10:10:29.001Z,13.97
2017-10-17T10:12:58.833Z,20.80
2017-10-17T10:15:28.671Z,18.80
2017-10-17T10:17:58.469Z,11.17
2017-10-17T10:20:28.610Z,12.03
2017-10-17T10:22:58.422Z,13.27
2017-10-17T10:25:28.255Z,15.83
2017-10-17T10:27:58.065Z,12.07
2017-10-17T10:30:27.902Z,9.97
2017-10-17T10:32:57.742Z,10.47
2017-10-17T10:35:27.568Z,10.23
2017-10-17T10:37:57.778Z,12.77
2017-10-17T10:40:28.513Z,12.73
2017-10-17T10:42:58.317Z,13.40
2017-10-17T10:45:28.137Z,10.17
2017-10-17T10:47:58.272Z,12.87
2017-10-17T10:50:28.064Z,10.17
2017-10-17T10:52:58.145Z,10.67
2017-10-17T10:55:28.087Z,10.60
2017-10-17T10:57:58.152Z,10.03
2017-10-17T11:00:28.311Z,15.43
2017-10-17T11:02:58.446Z,11.27
2017-10-17T11:05:28.271Z,10.90
2017-10-17T11:07:58.377Z,10.80
2017-10-17T11:10:28.191Z,18.00
2017-10-17T11:12:58.000Z,11.67
2017-10-17T11:15:27.857Z,10.57
2017-10-17T11:17:57.711Z,12.13
2017-10-17T11:20:27.892Z,10.37
2017-10-17T11:22:57.732Z,10.93
2017-10-17T11:25:27.545Z,12.47
2017-10-17T11:27:57.673Z,11.50
2017-10-17T11:30:27.496Z,15.23
2017-10-17T11:32:57.619Z,9.83
2017-10-17T11:35:27.506Z,11.20
2017-10-17T11:37:57.666Z,15.90
2017-10-17T11:40:33.333Z,10.30
2017-10-17T11:43:19.493Z,12.37
2017-10-17T11:45:49.423Z,14.03
2017-10-17T11:48:19.265Z,9.90
2017-10-17T11:50:49.121Z,10.40
2017-10-17T11:53:18.983Z,10.63
2017-10-17T11:55:49.662Z,10.70
2017-10-17T11:58:19.509Z,10.53
2017-10-17T12:00:50.057Z,11.03
2017-10-17T12:03:20.154Z,11.13
2017-10-17T12:05:50.496Z,11.33
2017-10-17T12:08:20.883Z,12.10
2017-10-17T12:10:50.715Z,8.80
2017-10-17T12:13:21.415Z,11.53
2017-10-17T12:15:51.219Z,9.60
2017-10-17T12:18:21.035Z,10.30
2017-10-17T12:20:50.873Z,10.93
2017-10-17T12:23:20.701Z,9.50
2017-10-17T12:25:50.592Z,11.83
2017-10-17T12:28:20.373Z,10.80
2017-10-17T12:30:50.494Z,11.80
2017-10-17T12:33:20.291Z,13.50
2017-10-17T12:35:50.137Z,15.23
2017-10-17T12:38:19.966Z,10.80
2017-10-17T12:40:49.826Z,14.13
2017-10-17T12:43:19.701Z,11.50
2017-10-17T12:48:33.585Z,11.77
2017-10-17T12:51:03.403Z,11.07
2017-10-17T12:53:33.486Z,12.50
2017-10-17T12:56:03.291Z,10.33
2017-10-17T12:58:33.391Z,10.20
2017-10-17T13:01:03.225Z,13.20
2017-10-17T13:03:33.801Z,12.60
2017-10-17T13:06:03.638Z,10.37
2017-10-17T13:08:33.808Z,11.07
2017-10-17T13:11:03.713Z,12.50
2017-10-17T13:13:33.546Z,11.47
2017-10-17T13:16:03.358Z,16.17
2017-10-17T13:18:33.222Z,11.20
2017-10-17T13:21:03.916Z,12.30
2017-10-17T13:23:34.143Z,11.17
2017-10-17T13:26:03.981Z,14.40
2017-10-17T13:28:33.816Z,12.97
2017-10-17T13:31:03.620Z,18.10
2017-10-17T13:33:33.438Z,10.73
2017-10-17T13:36:04.208Z,9.87
2017-10-17T13:38:34.019Z,10.03
2017-10-17T13:41:03.887Z,11.40
2017-10-17T13:43:33.734Z,12.07
2017-10-17T13:46:03.545Z,14.47
2017-10-17T13:48:33.406Z,14.93
2017-10-17T13:51:04.050Z,16.93
2017-10-17T13:53:33.883Z,10.27
2017-10-17T13:56:03.733Z,13.17
2017-10-17T13:58:33.584Z,16.50
2017-10-17T14:01:03.467Z,11.63
2017-10-17T14:03:33.337Z,11.63
2017-10-17T14:06:03.182Z,11.23
2017-10-17T14:08:32.988Z,10.80
2017-10-17T14:11:04.689Z,10.80
2017-10-17T14:13:34.497Z,14.53
2017-10-17T14:16:04.341Z,12.90
2017-10-17T14:18:34.162Z,11.80
2017-10-17T14:21:03.996Z,12.33
2017-10-17T14:23:33.815Z,11.23
2017-10-17T14:26:03.777Z,11.90
2017-10-17T14:28:33.635Z,13.73
2017-10-17T14:31:03.436Z,10.50
2017-10-17T14:33:33.246Z,11.93
2017-10-17T14:42:52.874Z,18.57
2017-10-17T14:45:22.746Z,12.53
2017-10-17T14:47:52.597Z,12.80
2017-10-17T14:50:22.471Z,15.27
2017-10-17T14:52:52.333Z,12.90
2017-10-17T14:55:22.152Z,14.20
2017-10-17T14:57:51.981Z,12.50
2017-10-17T15:00:21.827Z,13.57
2017-10-17T15:02:51.678Z,13.90
2017-10-17T15:05:21.461Z,17.73
2017-10-17T15:07:51.297Z,13.50
2017-10-17T15:10:21.110Z,15.00
2017-10-17T15:12:50.926Z,13.63
2017-10-17T15:15:20.807Z,14.50
2017-10-17T15:17:50.615Z,14.83
2017-10-17T15:20:20.453Z,20.53
2017-10-17T15:22:50.278Z,17.10
2017-10-17T15:25:20.084Z,14.33
2017-10-17T15:27:49.969Z,18.67
2017-10-17T15:30:19.792Z,16.43
2017-10-17T15:32:49.633Z,15.03
2017-10-17T15:35:19.451Z,15.40
2017-10-17T15:37:49.286Z,18.03
2017-10-17T15:40:19.115Z,16.20
2017-10-17T15:42:48.930Z,16.50
2017-10-17T15:45:18.740Z,20.27
2017-10-17T15:47:48.570Z,17.03
2017-10-17T15:50:18.401Z,18.87
2017-10-17T15:52:48.234Z,23.27
2017-10-17T15:55:18.062Z,18.77
2017-10-17T15:57:48.505Z,16.50
2017-10-17T16:00:18.309Z,21.07
2017-10-17T16:02:48.135Z,21.33
2017-10-17T16:05:17.945Z,19.90
2017-10-17T16:07:47.782Z,19.10
2017-10-17T16:10:17.617Z,20.20
2017-10-17T16:12:47.413Z,20.73
2017-10-17T16:15:17.227Z,23.80
2017-10-17T16:17:47.032Z,26.60
2017-10-17T16:20:16.856Z,33.03
2017-10-17T16:22:46.683Z,21.03
2017-10-17T16:25:16.504Z,24.20
2017-10-17T16:27:46.324Z,21.93
2017-10-17T16:30:16.198Z,23.20
2017-10-17T16:32:45.998Z,23.07
2017-10-17T16:35:15.865Z,24.43
2017-10-17T16:37:45.677Z,20.97
2017-10-17T16:40:15.508Z,24.17
2017-10-17T16:42:45.293Z,26.47
2017-10-17T16:45:15.121Z,23.43
2017-10-17T16:47:44.983Z,24.90
2017-10-17T16:50:14.825Z,27.40
2017-10-17T16:52:44.675Z,22.07
2017-10-17T16:55:14.762Z,41.77
2017-10-17T16:57:44.585Z,27.63
2017-10-17T17:00:14.407Z,23.90
2017-10-17T17:02:44.257Z,21.67
2017-10-17T17:05:14.054Z,22.40
2017-10-17T17:07:43.888Z,22.93
2017-10-17T17:10:13.708Z,20.50
2017-10-17T17:12:43.522Z,30.30
2017-10-17T17:15:13.339Z,25.00
2017-10-17T17:17:43.150Z,26.43
2017-10-17T17:20:12.974Z,27.80
2017-10-17T17:22:42.804Z,28.97
2017-10-17T17:25:12.599Z,30.70
2017-10-17T17:27:42.611Z,25.23
2017-10-17T17:30:12.481Z,26.87
2017-10-17T17:32:42.599Z,30.63
2017-10-17T17:35:12.406Z,29.50
2017-10-17T17:37:43.166Z,25.40
2017-10-17T17:40:13.065Z,27.63
2017-10-17T17:42:43.206Z,26.87
2017-10-17T17:45:13.018Z,26.13
2017-10-17T17:47:43.097Z,23.60
2017-10-17T17:50:12.910Z,26.13
2017-10-17T17:52:42.774Z,29.90
2017-10-17T17:55:12.619Z,25.87
2017-10-17T17:57:42.429Z,28.40
2017-10-17T18:00:12.247Z,25.70
2017-10-17T18:02:42.081Z,43.87
2017-10-17T18:05:11.892Z,28.43
2017-10-17T18:07:41.733Z,27.77
2017-10-17T18:10:11.547Z,30.50
2017-10-17T18:12:41.344Z,30.17
2017-10-17T18:15:11.169Z,28.07
2017-10-17T18:17:41.001Z,28.67
2017-10-17T18:20:10.814Z,28.83
2017-10-17T18:22:40.626Z,29.70
2017-10-17T18:25:10.802Z,30.37
2017-10-17T18:27:40.602Z,27.50
2017-10-17T18:30:10.733Z,33.17
2017-10-17T18:32:40.561Z,31.23
2017-10-17T18:35:10.801Z,32.00
2017-10-17T18:37:40.622Z,31.90
2017-10-17T18:40:10.811Z,29.83
2017-10-17T18:42:40.635Z,33.03
2017-10-17T18:45:10.755Z,30.90
2017-10-17T18:47:41.296Z,36.60
2017-10-17T18:50:11.513Z,30.47
2017-10-17T18:52:41.334Z,33.73
2017-10-17T18:55:11.441Z,30.77
2017-10-17T18:57:41.234Z,29.50
2017-10-17T19:00:12.727Z,28.27
2017-10-17T19:02:42.572Z,28.63
2017-10-17T19:05:12.769Z,32.03
2017-10-17T19:07:43.347Z,36.87
2017-10-17T19:10:13.533Z,30.77
2017-10-17T19:12:43.355Z,34.53
2017-10-17T19:15:13.467Z,31.27
2017-10-17T19:17:43.297Z,31.50
2017-10-17T19:20:13.414Z,31.50
2017-10-17T19:22:43.243Z,34.53
2017-10-17T19:25:13.370Z,37.00
2017-10-17T19:27:43.192Z,32.33
2017-10-17T19:30:13.492Z,33.40
2017-10-17T19:32:43.276Z,35.00
2017-10-17T19:35:13.411Z,29.70
2017-10-17T19:37:43.218Z,33.60
2017-10-17T19:40:13.392Z,37.90
2017-10-17T19:42:43.244Z,36.87
2017-10-17T19:45:13.402Z,34.10
2017-10-17T19:47:43.213Z,35.53
2017-10-17T19:50:13.360Z,34.20
2017-10-17T19:52:43.157Z,35.57
2017-10-17T19:55:13.286Z,34.43
2017-10-17T19:57:43.125Z,40.87
2017-10-17T20:00:13.291Z,33.50
2017-10-17T20:02:43.124Z,44.00
2017-10-17T20:05:13.195Z,38.17
2017-10-17T20:07:43.664Z,42.57
2017-10-17T20:10:13.801Z,41.77
2017-10-17T20:12:43.624Z,49.53
2017-10-17T20:15:13.789Z,41.13
2017-10-17T20:17:43.626Z,44.77
2017-10-17T20:20:13.812Z,48.70
2017-10-17T20:22:43.622Z,43.70
2017-10-17T20:25:13.709Z,41.67
2017-10-17T20:27:43.552Z,43.83
2017-10-17T20:30:13.722Z,43.73
2017-10-17T20:32:43.611Z,44.73
2017-10-17T20:35:13.740Z,40.13
2017-10-17T20:37:43.565Z,42.83
2017-10-17T20:40:13.670Z,45.80
2017-10-17T20:42:43.853Z,45.60
2017-10-17T20:45:14.042Z,44.10
2017-10-17T20:47:43.863Z,43.03
2017-10-17T20:50:13.686Z,41.63
2017-10-17T20:52:43.537Z,46.50
2017-10-17T20:55:13.402Z,44.43
2017-10-17T20:57:43.234Z,40.70
2017-10-17T21:00:13.113Z,42.50
2017-10-17T21:02:42.950Z,43.00
2017-10-17T21:05:12.773Z,41.10
2017-10-17T21:07:42.605Z,52.40
2017-10-17T21:10:12.430Z,48.47
2017-10-17T21:12:42.267Z,51.03
2017-10-17T21:15:12.085Z,46.20
2017-10-17T21:17:41.906Z,41.73
2017-10-17T21:20:11.726Z,49.77
2017-10-17T21:22:41.591Z,41.03
2017-10-17T21:25:11.373Z,44.03
2017-10-17T21:27:41.213Z,42.53
2017-10-17T21:30:11.254Z,43.37
2017-10-17T21:32:41.121Z,48.27
2017-10-17T21:35:10.986Z,41.07
2017-10-17T21:37:40.797Z,40.90
2017-10-17T21:40:10.614Z,46.20
2017-10-17T21:42:40.478Z,43.23
2017-10-17T21:45:10.294Z,42.43
2017-10-17T21:47:40.424Z,43.67
2017-10-17T21:50:10.241Z,45.80
2017-10-17T21:52:40.404Z,42.67
2017-10-17T21:55:10.217Z,37.40
2017-10-17T21:57:40.348Z,42.40
2017-10-17T22:00:10.415Z,46.80
2017-10-17T22:02:40.520Z,49.53
2017-10-17T22:05:10.350Z,49.67
2017-10-17T22:07:40.540Z,49.30
2017-10-17T22:10:10.369Z,43.50
2017-10-17T22:12:40.553Z,48.20
2017-10-17T22:15:10.631Z,49.50
2017-10-17T22:17:40.734Z,49.07
2017-10-17T22:20:10.546Z,47.37
2017-10-17T22:22:40.706Z,44.60
2017-10-17T22:25:10.970Z,58.53
2017-10-17T22:27:41.099Z,49.47
2017-10-17T22:30:10.939Z,43.37
2017-10-17T22:32:40.782Z,45.83
2017-10-17T22:35:11.339Z,46.50
2017-10-17T22:37:42.018Z,47.20
2017-10-17T22:40:11.843Z,47.90
2017-10-17T22:42:41.636Z,46.83
2017-10-17T22:45:11.454Z,49.00
2017-10-17T22:47:41.280Z,53.47
2017-10-17T22:50:11.124Z,49.93
2017-10-17T22:52:40.927Z,44.53
2017-10-17T22:55:11.281Z,44.80
2017-10-17T22:57:41.672Z,51.80
2017-10-17T23:00:11.494Z,50.00
2017-10-17T23:02:41.300Z,47.00
2017-10-17T23:05:11.142Z,51.13
2017-10-17T23:07:40.965Z,49.83
2017-10-17T23:10:11.696Z,48.43
2017-10-17T23:12:41.509Z,48.00
2017-10-17T23:15:11.343Z,48.37
2017-10-17T23:17:47.129Z,56.27
2017-10-17T23:20:22.788Z,49.73
2017-10-17T23:22:52.615Z,66.17
2017-10-17T23:25:23.407Z,56.03
2017-10-17T23:27:53.216Z,52.30
2017-10-17T23:30:23.401Z,52.17
2017-10-17T23:32:53.214Z,50.90
2017-10-17T23:35:23.977Z,50.00
2017-10-17T23:44:42.562Z,51.63
2017-10-17T23:47:12.406Z,40.83
2017-10-17T23:49:42.248Z,44.80
2017-10-17T23:52:12.085Z,55.13
2017-10-17T23:54:41.908Z,50.97
2017-10-17T23:57:11.738Z,45.90
2017-10-17T23:59:41.552Z,43.87
